createdAt,value
2023-06-15T00:00:08.319Z,76.63
2023-06-15T00:02:41.084Z,77.04
2023-06-15T00:05:10.468Z,77.40
2023-06-15T00:07:42.821Z,76.96
2023-06-15T00:10:11.422Z,77.34
2023-06-15T00:12:39.077Z,77.46
2023-06-15T00:15:09.597Z,76.24
2023-06-15T00:17:39.318Z,77.37
2023-06-15T00:20:14.515Z,76.88
2023-06-15T00:22:47.475Z,77.14
2023-06-15T00:25:16.968Z,77.84
2023-06-15T00:27:44.884Z,76.84
2023-06-15T00:30:13.636Z,77.12
2023-06-15T00:32:41.458Z,76.81
2023-06-15T00:35:09.382Z,77.21
2023-06-15T00:37:36.811Z,76.63
2023-06-15T00:40:09.940Z,76.74
2023-06-15T00:42:38.207Z,76.88
2023-06-15T00:45:07.564Z,76.55
2023-06-15T00:47:40.664Z,77.07
2023-06-15T00:50:15.990Z,77.02
2023-06-15T00:52:45.404Z,76.44
2023-06-15T00:55:16.738Z,76.51
2023-06-15T00:57:46.582Z,77.10
2023-06-15T01:00:16.156Z,76.43
2023-06-15T01:02:44.774Z,76.68
2023-06-15T01:05:19.285Z,77.18
2023-06-15T01:07:48.908Z,77.25
2023-06-15T01:10:19.898Z,77.75
2023-06-15T01:12:52.554Z,78.04
2023-06-15T01:15:21.513Z,77.96
2023-06-15T01:17:55.663Z,78.19
2023-06-15T01:20:28.905Z,78.74
2023-06-15T01:23:06.860Z,78.05
2023-06-15T01:25:46.338Z,77.53
2023-06-15T01:28:19.034Z,78.47
2023-06-15T01:30:49.644Z,78.77
2023-06-15T01:33:17.895Z,79.27
2023-06-15T01:35:48.987Z,79.36
2023-06-15T01:38:21.152Z,79.09
2023-06-15T01:40:51.322Z,79.57
2023-06-15T01:43:21.815Z,79.67
2023-06-15T01:45:51.281Z,80.42
2023-06-15T01:48:20.804Z,79.60
2023-06-15T01:50:51.700Z,79.27
2023-06-15T01:53:19.291Z,78.60
2023-06-15T01:55:47.691Z,78.75
2023-06-15T01:58:18.165Z,77.76
2023-06-15T02:00:46.360Z,78.10
2023-06-15T02:03:15.166Z,78.59
2023-06-15T02:05:43.677Z,78.91
2023-06-15T02:08:12.374Z,78.83
2023-06-15T02:10:40.591Z,78.73
2023-06-15T02:13:09.254Z,78.88
2023-06-15T02:15:38.123Z,78.38
2023-06-15T02:18:13.367Z,78.47
2023-06-15T02:20:43.214Z,79.27
2023-06-15T02:23:12.046Z,78.47
2023-06-15T02:25:39.882Z,78.16
2023-06-15T02:28:07.361Z,78.19
2023-06-15T02:30:37.026Z,77.99
2023-06-15T02:33:06.859Z,78.13
2023-06-15T02:35:34.333Z,78.39
2023-06-15T02:38:01.877Z,78.08
2023-06-15T02:40:29.006Z,77.85
2023-06-15T02:42:56.207Z,78.30
2023-06-15T02:45:23.326Z,78.20
2023-06-15T02:47:51.955Z,78.62
2023-06-15T02:50:19.374Z,79.68
2023-06-15T02:53:07.713Z,80.24
2023-06-15T02:55:35.097Z,80.62
2023-06-15T02:58:02.352Z,82.06
2023-06-15T03:01:02.173Z,81.67
2023-06-15T03:03:44.244Z,81.53
2023-06-15T03:06:12.013Z,82.01
2023-06-15T03:08:45.016Z,82.70
2023-06-15T03:11:24.452Z,82.22
2023-06-15T03:13:52.925Z,82.57
2023-06-15T03:16:20.197Z,83.02
2023-06-15T03:18:49.556Z,82.72
2023-06-15T03:21:17.144Z,82.24
2023-06-15T03:23:46.135Z,82.59
2023-06-15T03:26:15.165Z,82.82
2023-06-15T03:28:43.211Z,83.54
2023-06-15T03:31:18.708Z,83.49
2023-06-15T03:33:47.859Z,84.00
2023-06-15T03:36:20.029Z,84.63
2023-06-15T03:38:48.762Z,83.83
2023-06-15T03:41:16.276Z,84.35
2023-06-15T03:43:43.554Z,85.03
2023-06-15T03:46:10.728Z,86.75
2023-06-15T03:48:37.949Z,86.78
2023-06-15T03:51:06.438Z,87.23
2023-06-15T03:53:34.003Z,87.68
2023-06-15T03:56:01.338Z,87.96
2023-06-15T03:58:37.212Z,89.97
2023-06-15T04:01:08.598Z,90.49
2023-06-15T04:03:36.551Z,90.17
2023-06-15T04:06:05.670Z,90.23
2023-06-15T04:08:39.240Z,91.04
2023-06-15T04:11:08.441Z,90.60
2023-06-15T04:13:36.468Z,91.02
2023-06-15T04:16:07.595Z,91.77
2023-06-15T04:18:36.257Z,92.61
2023-06-15T04:21:04.024Z,94.17
2023-06-15T04:23:32.502Z,94.38
2023-06-15T04:26:02.011Z,94.48
2023-06-15T04:28:36.552Z,95.48
2023-06-15T04:31:13.883Z,95.40
2023-06-15T04:33:46.269Z,94.64
2023-06-15T04:36:15.330Z,95.31
2023-06-15T04:38:48.007Z,94.27
2023-06-15T04:41:23.832Z,95.60
2023-06-15T04:43:58.062Z,94.77
2023-06-15T04:46:26.146Z,95.47
2023-06-15T04:48:54.252Z,95.27
2023-06-15T04:51:25.267Z,95.84
2023-06-15T04:53:52.737Z,96.26
2023-06-15T04:56:22.628Z,96.88
2023-06-15T04:58:50.846Z,97.25
2023-06-15T05:01:18.790Z,95.53
2023-06-15T05:03:56.001Z,93.16
2023-06-15T05:06:24.077Z,93.06
2023-06-15T05:08:52.259Z,95.52
2023-06-15T05:11:21.473Z,89.29
2023-06-15T05:13:48.798Z,88.91
2023-06-15T05:16:16.159Z,89.64
2023-06-15T05:18:45.238Z,89.58
2023-06-15T05:21:13.729Z,88.21
2023-06-15T05:23:43.226Z,92.91
2023-06-15T05:26:21.099Z,95.86
2023-06-15T05:29:00.382Z,97.39
2023-06-15T05:31:30.699Z,93.49
2023-06-15T05:34:00.936Z,88.90
2023-06-15T05:36:43.202Z,87.81
2023-06-15T05:39:23.296Z,90.84
2023-06-15T05:41:52.177Z,89.18
2023-06-15T05:44:20.867Z,88.13
2023-06-15T05:46:50.567Z,87.07
2023-06-15T05:49:18.658Z,89.29
2023-06-15T05:51:48.873Z,90.16
2023-06-15T05:54:17.572Z,89.61
2023-06-15T05:56:45.051Z,87.46
2023-06-15T05:59:27.880Z,86.37
2023-06-15T06:02:08.326Z,85.13
2023-06-15T06:04:37.722Z,86.37
2023-06-15T06:07:08.670Z,86.95
2023-06-15T06:09:38.846Z,88.16
2023-06-15T06:12:07.968Z,86.89
2023-06-15T06:14:35.938Z,86.99
2023-06-15T06:17:03.520Z,83.41
2023-06-15T06:19:32.090Z,85.08
2023-06-15T06:22:01.050Z,79.24
2023-06-15T06:24:29.854Z,81.78
2023-06-15T06:26:59.848Z,84.40
2023-06-15T06:29:27.168Z,79.83
2023-06-15T06:31:54.453Z,81.63
2023-06-15T06:34:21.786Z,78.78
2023-06-15T06:36:49.155Z,75.34
2023-06-15T06:39:16.723Z,75.47
2023-06-15T06:41:44.071Z,77.74
2023-06-15T06:44:16.444Z,75.11
2023-06-15T06:46:46.137Z,74.82
2023-06-15T06:49:13.404Z,76.40
2023-06-15T06:51:40.688Z,75.92
2023-06-15T06:54:08.343Z,80.23
2023-06-15T06:56:40.623Z,72.17
2023-06-15T06:59:10.432Z,75.78
2023-06-15T07:01:38.925Z,77.27
2023-06-15T07:04:06.583Z,77.82
2023-06-15T07:06:36.285Z,74.64
2023-06-15T07:09:03.655Z,68.22
2023-06-15T07:11:33.096Z,69.43
2023-06-15T07:14:03.842Z,73.41
2023-06-15T07:16:31.780Z,73.98
2023-06-15T07:19:00.450Z,73.22
2023-06-15T07:21:27.728Z,70.05
2023-06-15T07:23:55.022Z,71.75
2023-06-15T07:26:22.769Z,74.48
2023-06-15T07:28:50.091Z,73.61
2023-06-15T07:31:17.354Z,72.13
2023-06-15T07:33:44.849Z,73.27
2023-06-15T07:36:12.277Z,71.46
2023-06-15T07:38:39.553Z,74.81
2023-06-15T07:41:06.681Z,68.78
2023-06-15T07:43:34.079Z,71.83
2023-06-15T07:46:01.546Z,72.85
2023-06-15T07:48:28.766Z,71.26
2023-06-15T07:50:55.954Z,71.49
2023-06-15T07:53:23.892Z,71.81
2023-06-15T07:55:51.801Z,64.47
2023-06-15T07:58:19.281Z,66.27
2023-06-15T08:00:46.639Z,65.49
2023-06-15T08:03:13.906Z,64.91
2023-06-15T08:05:41.335Z,67.12
2023-06-15T08:08:08.469Z,63.25
2023-06-15T08:10:36.552Z,63.65
2023-06-15T08:13:03.867Z,63.15
2023-06-15T08:15:32.257Z,64.14
2023-06-15T08:17:59.534Z,65.33
2023-06-15T08:20:27.734Z,64.76
2023-06-15T08:22:54.708Z,66.29
2023-06-15T08:25:22.694Z,63.63
2023-06-15T08:27:50.009Z,65.05
2023-06-15T08:30:17.698Z,64.30
2023-06-15T08:32:45.086Z,63.97
2023-06-15T08:35:12.546Z,64.88
2023-06-15T08:37:39.873Z,65.02
2023-06-15T08:40:09.525Z,63.62
2023-06-15T08:42:37.056Z,63.47
2023-06-15T08:45:09.950Z,63.84
2023-06-15T08:47:37.591Z,64.04
2023-06-15T08:50:06.420Z,64.07
2023-06-15T08:52:45.626Z,65.82
2023-06-15T08:55:17.425Z,70.34
2023-06-15T08:57:44.852Z,70.11
2023-06-15T09:00:12.609Z,69.74
2023-06-15T09:02:43.666Z,70.23
2023-06-15T09:05:11.105Z,70.04
2023-06-15T09:07:38.395Z,70.70
2023-06-15T09:10:14.597Z,72.05
2023-06-15T09:12:56.354Z,73.40
2023-06-15T09:15:25.812Z,73.30
2023-06-15T09:17:54.540Z,73.94
2023-06-15T09:20:27.230Z,72.74
2023-06-15T09:23:07.173Z,74.09
2023-06-15T09:25:34.918Z,72.72
2023-06-15T09:28:07.518Z,73.02
2023-06-15T09:30:35.881Z,72.64
2023-06-15T09:33:17.362Z,72.23
2023-06-15T09:36:05.055Z,71.78
2023-06-15T09:38:44.236Z,71.40
2023-06-15T09:41:12.484Z,70.58
2023-06-15T09:43:42.924Z,70.67
2023-06-15T09:46:17.976Z,71.14
2023-06-15T09:48:48.380Z,71.80
2023-06-15T09:51:21.980Z,71.57
2023-06-15T09:53:52.487Z,71.75
2023-06-15T09:56:30.439Z,71.53
2023-06-15T09:59:03.777Z,71.44
2023-06-15T10:01:37.007Z,70.79
2023-06-15T10:04:06.462Z,70.90
2023-06-15T10:06:42.189Z,69.76
2023-06-15T10:09:11.193Z,71.31
2023-06-15T10:11:43.006Z,71.25
2023-06-15T10:14:22.027Z,70.48
2023-06-15T10:16:55.143Z,70.29
2023-06-15T10:19:25.246Z,66.41
2023-06-15T10:21:54.039Z,66.93
2023-06-15T10:24:24.352Z,68.58
2023-06-15T10:26:52.263Z,68.39
2023-06-15T10:29:37.953Z,67.90
2023-06-15T10:32:19.255Z,67.30
2023-06-15T10:35:04.753Z,67.20
2023-06-15T10:38:17.247Z,66.12
2023-06-15T10:40:49.357Z,67.58
2023-06-15T10:43:21.201Z,68.70
2023-06-15T10:45:49.368Z,68.08
2023-06-15T10:48:28.299Z,74.27
2023-06-15T10:51:07.844Z,69.54
2023-06-15T10:53:41.150Z,67.51
2023-06-15T10:56:18.725Z,68.02
2023-06-15T10:59:06.947Z,65.74
2023-06-15T11:01:34.041Z,66.94
2023-06-15T11:04:02.951Z,66.56
2023-06-15T11:06:35.479Z,68.21
2023-06-15T11:09:26.271Z,70.24
2023-06-15T11:11:53.425Z,68.37
2023-06-15T11:14:20.549Z,70.94
2023-06-15T11:17:02.910Z,68.39
2023-06-15T11:19:31.593Z,67.02
2023-06-15T11:22:09.059Z,68.98
2023-06-15T11:24:39.335Z,69.65
2023-06-15T11:27:10.791Z,68.64
2023-06-15T11:29:42.455Z,68.98
2023-06-15T11:32:11.584Z,65.21
2023-06-15T11:34:40.571Z,66.91
2023-06-15T11:37:16.193Z,70.03
2023-06-15T11:39:46.215Z,70.44
2023-06-15T11:42:13.561Z,68.71
2023-06-15T11:44:42.636Z,66.11
2023-06-15T11:47:14.868Z,65.63
2023-06-15T11:49:42.378Z,65.58
2023-06-15T11:52:09.644Z,67.00
2023-06-15T11:54:51.755Z,68.37
2023-06-15T11:57:22.032Z,68.82
2023-06-15T11:59:49.729Z,69.16
2023-06-15T12:02:18.308Z,69.21
2023-06-15T12:04:48.050Z,69.63
2023-06-15T12:07:28.118Z,69.55
2023-06-15T12:10:04.739Z,69.34
2023-06-15T12:12:33.372Z,69.23
2023-06-15T12:15:06.542Z,64.72
2023-06-15T12:17:36.319Z,64.70
2023-06-15T12:20:12.727Z,67.23
2023-06-15T12:22:48.159Z,68.29
2023-06-15T12:25:16.326Z,69.35
2023-06-15T12:27:49.202Z,67.43
2023-06-15T12:30:19.228Z,67.49
2023-06-15T12:32:50.954Z,67.25
2023-06-15T12:35:43.000Z,66.11
2023-06-15T12:38:10.444Z,66.25
2023-06-15T12:40:41.428Z,67.89
2023-06-15T12:43:08.754Z,69.09
2023-06-15T12:45:36.927Z,66.75
2023-06-15T12:48:05.806Z,67.29
2023-06-15T12:50:33.102Z,66.99
2023-06-15T12:53:00.990Z,68.12
2023-06-15T12:55:29.595Z,68.22
2023-06-15T12:57:57.703Z,68.72
2023-06-15T13:00:26.864Z,68.47
2023-06-15T13:02:54.993Z,69.06
2023-06-15T13:05:22.924Z,69.74
2023-06-15T13:07:50.585Z,67.96
2023-06-15T13:10:18.613Z,66.12
2023-06-15T13:12:47.785Z,67.11
2023-06-15T13:15:14.840Z,65.91
2023-06-15T13:17:41.982Z,67.15
2023-06-15T13:20:10.474Z,69.02
2023-06-15T13:22:37.637Z,68.66
2023-06-15T13:25:06.030Z,69.83
2023-06-15T13:27:37.213Z,69.11
2023-06-15T13:30:09.532Z,69.04
2023-06-15T13:32:39.014Z,69.09
2023-06-15T13:35:07.492Z,69.49
2023-06-15T13:37:36.245Z,67.18
2023-06-15T13:40:07.910Z,68.31
2023-06-15T13:42:36.496Z,67.84
2023-06-15T13:45:09.378Z,67.60
2023-06-15T13:47:38.894Z,67.01
2023-06-15T13:50:07.262Z,65.54
2023-06-15T13:52:35.510Z,64.87
2023-06-15T13:55:07.066Z,63.00
2023-06-15T13:57:36.225Z,63.66
2023-06-15T14:02:41.983Z,64.82
2023-06-15T14:05:14.888Z,63.43
2023-06-15T14:07:42.495Z,63.31
2023-06-15T14:10:10.381Z,64.15
2023-06-15T14:12:37.788Z,65.08
2023-06-15T14:15:07.976Z,66.52
2023-06-15T14:17:35.240Z,66.61
2023-06-15T14:20:02.570Z,66.90
2023-06-15T14:22:31.770Z,68.33
2023-06-15T14:24:59.682Z,67.89
2023-06-15T14:27:26.816Z,66.54
2023-06-15T14:29:54.032Z,66.48
2023-06-15T14:32:21.607Z,66.03
2023-06-15T14:34:49.397Z,65.74
2023-06-15T14:37:17.887Z,66.76
2023-06-15T14:39:46.064Z,65.51
2023-06-15T14:42:15.842Z,64.07
2023-06-15T14:44:43.046Z,63.50
2023-06-15T14:47:10.141Z,64.73
2023-06-15T14:49:37.309Z,64.10
2023-06-15T14:52:04.899Z,65.81
2023-06-15T14:54:33.349Z,66.94
2023-06-15T14:57:00.626Z,66.69
2023-06-15T14:59:27.974Z,66.81
2023-06-15T15:01:55.440Z,64.58
2023-06-15T15:04:23.571Z,65.27
2023-06-15T15:06:52.317Z,64.82
2023-06-15T15:09:22.401Z,65.76
2023-06-15T15:11:49.535Z,64.83
2023-06-15T15:14:16.688Z,63.80
2023-06-15T15:16:43.861Z,65.16
2023-06-15T15:19:11.146Z,64.85
2023-06-15T15:21:38.294Z,64.01
2023-06-15T15:24:06.172Z,65.28
2023-06-15T15:26:33.590Z,62.32
2023-06-15T15:29:00.743Z,65.23
2023-06-15T15:31:27.873Z,63.79
2023-06-15T15:33:55.241Z,64.45
2023-06-15T15:36:22.487Z,64.94
2023-06-15T15:38:49.851Z,64.33
2023-06-15T15:41:17.762Z,65.88
2023-06-15T15:43:44.889Z,65.48
2023-06-15T15:46:12.116Z,64.94
2023-06-15T15:48:39.316Z,65.54
2023-06-15T15:51:08.301Z,65.50
2023-06-15T15:53:36.644Z,66.02
2023-06-15T15:56:11.690Z,67.39
2023-06-15T15:58:38.920Z,66.85
2023-06-15T16:01:17.209Z,67.87
2023-06-15T16:03:44.642Z,67.91
2023-06-15T16:06:11.902Z,67.28
2023-06-15T16:08:39.149Z,68.43
2023-06-15T16:11:06.396Z,67.51
2023-06-15T16:13:33.585Z,67.16
2023-06-15T16:16:20.944Z,68.10
2023-06-15T16:18:48.773Z,66.70
2023-06-15T16:21:16.136Z,67.40
2023-06-15T16:23:43.560Z,69.16
2023-06-15T16:26:10.822Z,69.46
2023-06-15T16:28:38.041Z,70.26
2023-06-15T16:31:05.364Z,68.29
2023-06-15T16:33:32.592Z,68.78
2023-06-15T16:35:59.884Z,68.16
2023-06-15T16:38:26.869Z,67.92
2023-06-15T16:40:53.968Z,67.55
2023-06-15T16:43:21.256Z,67.71
2023-06-15T16:45:48.422Z,67.82
2023-06-15T16:48:15.823Z,68.37
2023-06-15T16:50:42.924Z,69.03
2023-06-15T16:53:13.790Z,69.29
2023-06-15T16:55:42.434Z,69.76
2023-06-15T16:58:12.429Z,70.11
2023-06-15T17:00:40.184Z,71.64
2023-06-15T17:03:07.410Z,71.77
2023-06-15T17:05:34.674Z,72.49
2023-06-15T17:08:01.933Z,73.37
2023-06-15T17:10:29.091Z,73.25
2023-06-15T17:13:04.787Z,73.46
2023-06-15T17:15:31.963Z,74.15
2023-06-15T17:18:01.298Z,74.18
2023-06-15T17:20:28.805Z,73.49
2023-06-15T17:22:55.866Z,73.71
2023-06-15T17:25:22.955Z,72.86
2023-06-15T17:27:50.171Z,73.30
2023-06-15T17:30:20.124Z,72.84
2023-06-15T17:32:47.446Z,72.92
2023-06-15T17:35:14.702Z,73.01
2023-06-15T17:37:41.703Z,72.83
2023-06-15T17:40:09.382Z,72.17
2023-06-15T17:42:36.713Z,72.24
2023-06-15T17:45:05.498Z,72.84
2023-06-15T17:47:33.111Z,73.55
2023-06-15T17:50:00.441Z,73.98
2023-06-15T17:52:27.709Z,73.45
2023-06-15T17:54:56.786Z,73.12
2023-06-15T17:57:25.478Z,73.44
2023-06-15T17:59:53.966Z,73.77
2023-06-15T18:02:23.721Z,74.15
2023-06-15T18:04:51.760Z,74.25
2023-06-15T18:07:19.140Z,74.02
2023-06-15T18:09:46.335Z,73.55
2023-06-15T18:12:14.582Z,73.81
2023-06-15T18:14:41.873Z,74.52
2023-06-15T18:17:09.596Z,74.60
2023-06-15T18:19:37.572Z,75.55
2023-06-15T18:22:06.121Z,76.49
2023-06-15T18:24:33.904Z,76.57
2023-06-15T18:27:01.050Z,76.89
2023-06-15T18:29:28.380Z,76.54
2023-06-15T18:31:55.811Z,76.29
2023-06-15T18:34:23.062Z,76.35
2023-06-15T18:36:50.252Z,76.23
2023-06-15T18:39:19.005Z,75.70
2023-06-15T18:41:46.509Z,75.59
2023-06-15T18:44:13.721Z,74.67
2023-06-15T18:46:40.960Z,75.38
2023-06-15T18:49:08.192Z,75.04
2023-06-15T18:51:35.308Z,74.31
2023-06-15T18:54:02.866Z,74.33
2023-06-15T18:56:30.393Z,74.40
2023-06-15T18:58:57.852Z,73.77
2023-06-15T19:01:25.986Z,74.07
2023-06-15T19:03:53.276Z,74.10
2023-06-15T19:06:23.246Z,74.44
2023-06-15T19:08:50.534Z,74.77
2023-06-15T19:11:18.606Z,75.51
2023-06-15T19:13:45.824Z,75.75
2023-06-15T19:16:13.249Z,75.89
2023-06-15T19:18:43.982Z,75.85
2023-06-15T19:21:13.355Z,75.92
2023-06-15T19:23:44.540Z,76.33
2023-06-15T19:26:16.100Z,76.60
2023-06-15T19:28:44.418Z,75.71
2023-06-15T19:31:13.298Z,75.83
2023-06-15T19:33:40.528Z,75.99
2023-06-15T19:36:07.889Z,75.50
2023-06-15T19:38:38.116Z,75.93
2023-06-15T19:41:07.849Z,75.38
2023-06-15T19:43:36.873Z,76.00
2023-06-15T19:46:04.705Z,76.41
2023-06-15T19:48:34.510Z,76.57
2023-06-15T19:51:02.456Z,76.93
2023-06-15T19:53:35.391Z,76.97
2023-06-15T19:56:07.654Z,76.97
2023-06-15T19:58:35.582Z,77.28
2023-06-15T20:01:04.484Z,77.47
2023-06-15T20:03:33.883Z,77.48
2023-06-15T20:06:07.702Z,77.78
2023-06-15T20:08:37.942Z,77.88
2023-06-15T20:11:10.203Z,78.35
2023-06-15T20:13:40.542Z,78.36
2023-06-15T20:16:13.783Z,78.36
2023-06-15T20:18:45.087Z,78.44
2023-06-15T20:21:13.479Z,78.48
2023-06-15T20:23:41.136Z,78.95
2023-06-15T20:26:09.113Z,79.28
2023-06-15T20:28:38.617Z,78.46
2023-06-15T20:31:07.656Z,78.09
2023-06-15T20:33:39.004Z,78.56
2023-06-15T20:36:07.349Z,79.33
2023-06-15T20:38:37.249Z,78.65
2023-06-15T20:41:06.685Z,78.65
2023-06-15T20:43:34.224Z,79.24
2023-06-15T20:46:02.874Z,79.15
2023-06-15T20:48:34.088Z,78.58
2023-06-15T20:51:02.849Z,79.57
2023-06-15T20:53:30.183Z,79.45
2023-06-15T20:55:58.307Z,79.26
2023-06-15T20:58:26.263Z,79.06
2023-06-15T21:01:00.125Z,78.99
2023-06-15T21:03:29.956Z,79.33
2023-06-15T21:05:57.695Z,80.11
2023-06-15T21:08:26.982Z,79.83
2023-06-15T21:10:54.537Z,81.26
2023-06-15T21:13:22.931Z,80.49
2023-06-15T21:15:50.079Z,81.21
2023-06-15T21:18:17.454Z,81.43
2023-06-15T21:20:44.954Z,81.86
2023-06-15T21:23:12.372Z,81.26
2023-06-15T21:25:39.831Z,80.45
2023-06-15T21:28:16.927Z,80.95
2023-06-15T21:30:45.437Z,81.39
2023-06-15T21:33:12.666Z,80.29
2023-06-15T21:35:40.513Z,81.07
2023-06-15T21:38:08.377Z,81.09
2023-06-15T21:40:35.872Z,80.47
2023-06-15T21:43:02.998Z,80.70
2023-06-15T21:45:30.581Z,80.62
2023-06-15T21:47:57.854Z,81.03
2023-06-15T21:50:27.353Z,81.45
2023-06-15T21:52:59.633Z,80.86
2023-06-15T21:55:30.197Z,80.55
2023-06-15T21:57:58.858Z,81.05
2023-06-15T22:00:28.337Z,81.11
2023-06-15T22:02:55.845Z,80.75
2023-06-15T22:05:24.476Z,80.22
2023-06-15T22:07:52.567Z,80.61
2023-06-15T22:10:22.495Z,80.88
2023-06-15T22:12:49.950Z,81.57
2023-06-15T22:15:17.252Z,80.48
2023-06-15T22:17:44.797Z,79.89
2023-06-15T22:20:13.051Z,79.38
2023-06-15T22:22:40.438Z,78.19
2023-06-15T22:25:08.177Z,78.77
2023-06-15T22:27:35.785Z,79.15
2023-06-15T22:30:04.381Z,79.55
2023-06-15T22:32:31.907Z,80.45
2023-06-15T22:34:59.385Z,80.40
2023-06-15T22:37:27.284Z,80.59
2023-06-15T22:39:55.725Z,80.67
2023-06-15T22:42:22.995Z,79.90
2023-06-15T22:44:50.551Z,78.63
2023-06-15T22:47:20.578Z,79.38
2023-06-15T22:49:48.233Z,80.24
2023-06-15T22:52:16.811Z,80.34
2023-06-15T22:54:44.555Z,80.92
2023-06-15T22:57:13.680Z,80.81
2023-06-15T22:59:43.499Z,80.34
2023-06-15T23:02:12.539Z,80.24
2023-06-15T23:04:40.743Z,79.70
2023-06-15T23:07:15.262Z,79.83
2023-06-15T23:09:42.490Z,80.01
2023-06-15T23:12:13.510Z,80.14
2023-06-15T23:14:41.591Z,80.04
2023-06-15T23:17:09.497Z,80.25
2023-06-15T23:19:36.578Z,78.67
2023-06-15T23:22:07.195Z,79.33
2023-06-15T23:24:35.027Z,78.45
2023-06-15T23:27:04.232Z,78.16
2023-06-15T23:29:36.886Z,78.49
2023-06-15T23:32:05.476Z,77.82
2023-06-15T23:34:32.843Z,76.90
2023-06-15T23:37:01.139Z,76.86
2023-06-15T23:39:31.854Z,77.82
2023-06-15T23:41:59.448Z,77.47
2023-06-15T23:44:27.136Z,78.03
2023-06-15T23:46:54.546Z,76.66
2023-06-15T23:49:21.918Z,77.05
2023-06-15T23:51:49.566Z,77.63
2023-06-15T23:54:20.321Z,77.75
2023-06-15T23:56:47.646Z,77.73
2023-06-15T23:59:15.914Z,78.05
